الصفحة الرئيسية
METAR-TAF:

METAR-TAF

مطار :

Mount Isa, أستراليا

دائرة عرض: 20-40S, خط طول: 139-28E, ارتفاع: 342 متر

مراقبة الطقس الحالي

تاريخ ووقت الإصدار 24 دقيقة قبل الساعة 06:30UTC
ريح 8 عقدة من الجنوب, الاتجاه يتراوح بين الجنوب الشرقي و الغرب/الجنوب الغربي
درجة الحرارة 31°درجة مئوية
الرطوبة 17%
ضغط 1013 hPa
الرؤية 10 كم أو أكثر

METAR: YBMA 060630Z AUTO 18008KT 130V240 9999 // NCD 31/03 Q1013 RF00.0/000.0

زمن: 16:54 (06:54 UTC)

توقعات

تاريخ ووقت الإصدار 1ساعة و 50 دقيقة قبل الساعة 05:04UTC
التوقعات صالحة من06 الساعة 06 UTC إلى 06 الساعة 18 UTC
ريح 9 عقدة من الجنوب/الجنوب الشرقي
الرؤية 10 كم أو أكثر
الغيوم لا تقل 1500 م ولا وجود لمزنة ركامية السحاب الأسود

TAF: YBMA 060504Z 0606/0618 16009KT CAVOK

أرصاد الطقس والتوقعات من أكثر من 4000 مطار (تقارير الطقس للمطار METAR والتنبؤ بالطقس بالمطارTAF).

المحطات المتاحة هي النقط الصفراء والحمراء على الخريطة.

حرك المؤشر فوق النقطة لمعرفة اسم المحطة.

ثم انقر لمعرفة أرصاد وتوقعات الطقس.

لتغيير الخارطة: اضغط على الأزرار الخضراء مع رمز الصليب الأسود للتكبير. على الزر الأخضر مع شرطة للتصغير، أو على الأسهم الخضراء للخرائط المجاورة.


METAR-TAF: